Terminal Aerodrome Forecast
Issued by NWS Northern Indiana

Home | Current Version | Previous Version | Graphics & Text | Print | Product List | Glossary On
Versions: 1 2 3 4 5 6 7 8 9 10 11 12 13 14
000
FTUS43 KIWX 191729
TAFFWA
TAF
KFWA 191729Z 1918/2018 26006KT P6SM SCT150
     FM200700 VRB03KT 5SM BR BKN140
     FM201400 22006KT P6SM BKN070=

USA.gov is the U.S. government's official web portal to all federal, state and local government web resources and services.